sensor_id;sensor_type;location;lat;lon;timestamp;pressure;altitude;pressure_sealevel;temperature;humidity
53089;BME280;38968;47.696;17.540;2023-02-04T00:02:39;10020350.0;;;8.8;59.29199
53089;BME280;38968;47.696;17.540;2023-02-04T00:07:38;10018880.0;;;8.61;59.16309
53089;BME280;38968;47.696;17.540;2023-02-04T00:12:37;10019480.0;;;8.76;58.80762
53089;BME280;38968;47.696;17.540;2023-02-04T00:17:37;10019390.0;;;8.9;58.33496
53089;BME280;38968;47.696;17.540;2023-02-04T00:22:37;10018260.0;;;8.89;57.54688
53089;BME280;38968;47.696;17.540;2023-02-04T00:27:37;10020250.0;;;9.02;56.74121
53089;BME280;38968;47.696;17.540;2023-02-04T00:32:37;10020070.0;;;9.1;56.375
53089;BME280;38968;47.696;17.540;2023-02-04T00:37:37;10020170.0;;;8.93;57.11621
53089;BME280;38968;47.696;17.540;2023-02-04T00:42:37;10020330.0;;;9.06;56.91797
53089;BME280;38968;47.696;17.540;2023-02-04T00:47:38;10020600.0;;;8.98;55.88965
53089;BME280;38968;47.696;17.540;2023-02-04T00:52:37;10021980.0;;;9.16;55.04395
53089;BME280;38968;47.696;17.540;2023-02-04T00:57:37;10021970.0;;;9.29;54.60352
53089;BME280;38968;47.696;17.540;2023-02-04T01:02:37;10020740.0;;;9.5;52.94531
53089;BME280;38968;47.696;17.540;2023-02-04T01:07:37;10020300.0;;;9.44;52.75488
53089;BME280;38968;47.696;17.540;2023-02-04T01:12:37;10020660.0;;;9.29;53.05859
53089;BME280;38968;47.696;17.540;2023-02-04T01:17:38;10019630.0;;;9.23;53.79395
53089;BME280;38968;47.696;17.540;2023-02-04T01:22:37;10019260.0;;;9.43;53.26855
53089;BME280;38968;47.696;17.540;2023-02-04T01:27:37;10019450.0;;;9.24;53.88672
53089;BME280;38968;47.696;17.540;2023-02-04T01:32:37;10019880.0;;;9.28;53.74219
53089;BME280;38968;47.696;17.540;2023-02-04T01:37:37;10019120.0;;;8.96;54.51465
53089;BME280;38968;47.696;17.540;2023-02-04T01:42:37;10019710.0;;;9.28;54.18945
53089;BME280;38968;47.696;17.540;2023-02-04T01:47:38;10018410.0;;;9.22;54.28516
53089;BME280;38968;47.696;17.540;2023-02-04T01:52:38;10017540.0;;;9.17;54.96484
53089;BME280;38968;47.696;17.540;2023-02-04T01:57:37;10016670.0;;;9.2;55.05957
53089;BME280;38968;47.696;17.540;2023-02-04T02:02:48;10015370.0;;;9.17;55.65039
53089;BME280;38968;47.696;17.540;2023-02-04T02:07:38;10015630.0;;;9.17;55.90234
53089;BME280;38968;47.696;17.540;2023-02-04T02:12:38;10015210.0;;;9.02;56.38574
53089;BME280;38968;47.696;17.540;2023-02-04T02:17:38;10015390.0;;;8.92;56.39648
53089;BME280;38968;47.696;17.540;2023-02-04T02:27:37;10016590.0;;;9.12;55.90723
53089;BME280;38968;47.696;17.540;2023-02-04T02:32:38;10016950.0;;;9.01;55.66504
53089;BME280;38968;47.696;17.540;2023-02-04T02:37:37;10016750.0;;;9.26;55.51465
53089;BME280;38968;47.696;17.540;2023-02-04T02:42:37;10017730.0;;;8.92;56.15625
53089;BME280;38968;47.696;17.540;2023-02-04T02:47:37;10017810.0;;;9.14;55.63574
53089;BME280;38968;47.696;17.540;2023-02-04T02:52:37;10016070.0;;;9.13;55.08594
53089;BME280;38968;47.696;17.540;2023-02-04T02:57:37;10015900.0;;;9;55.57227
53089;BME280;38968;47.696;17.540;2023-02-04T03:02:37;10017640.0;;;9.08;55.44629
53089;BME280;38968;47.696;17.540;2023-02-04T03:07:37;10016260.0;;;8.96;55.23535
53089;BME280;38968;47.696;17.540;2023-02-04T03:12:37;10017190.0;;;9.17;54.82715
53089;BME280;38968;47.696;17.540;2023-02-04T03:17:38;10015820.0;;;8.92;55.03613
53089;BME280;38968;47.696;17.540;2023-02-04T03:22:37;10017640.0;;;9.05;55.04297
53089;BME280;38968;47.696;17.540;2023-02-04T03:27:37;10017710.0;;;9.18;54.56641
53089;BME280;38968;47.696;17.540;2023-02-04T03:32:37;10017110.0;;;9.16;54.50684
53089;BME280;38968;47.696;17.540;2023-02-04T03:37:37;10016230.0;;;9.25;53.86523
53089;BME280;38968;47.696;17.540;2023-02-04T03:42:38;10016160.0;;;9.14;54.06934
53089;BME280;38968;47.696;17.540;2023-02-04T03:47:37;10014330.0;;;9.14;53.77148
53089;BME280;38968;47.696;17.540;2023-02-04T03:52:37;10013890.0;;;9.2;53.46973
53089;BME280;38968;47.696;17.540;2023-02-04T03:57:37;10013700.0;;;9.34;52.6748
53089;BME280;38968;47.696;17.540;2023-02-04T04:02:38;10013290.0;;;9.09;53.69629
53089;BME280;38968;47.696;17.540;2023-02-04T04:07:37;10012240.0;;;9.14;53.55371
53089;BME280;38968;47.696;17.540;2023-02-04T04:12:37;10010500.0;;;9.19;53.125
53089;BME280;38968;47.696;17.540;2023-02-04T04:17:37;10010690.0;;;9;53.82227
53089;BME280;38968;47.696;17.540;2023-02-04T04:22:37;10010320.0;;;9.27;53.41016
53089;BME280;38968;47.696;17.540;2023-02-04T04:27:37;10010500.0;;;9.14;53.91992
53089;BME280;38968;47.696;17.540;2023-02-04T04:32:37;10010870.0;;;8.96;54.43555
53089;BME280;38968;47.696;17.540;2023-02-04T04:37:37;10011880.0;;;9.28;53.11328
53089;BME280;38968;47.696;17.540;2023-02-04T04:42:38;10014230.0;;;9.24;53.0166
53089;BME280;38968;47.696;17.540;2023-02-04T04:47:37;10018710.0;;;8.6;55.79395
53089;BME280;38968;47.696;17.540;2023-02-04T04:52:37;10021170.0;;;7.5;63.41309
53089;BME280;38968;47.696;17.540;2023-02-04T04:57:37;10022960.0;;;6.29;66.51172
53089;BME280;38968;47.696;17.540;2023-02-04T05:02:37;10024050.0;;;5.79;67.33887
53089;BME280;38968;47.696;17.540;2023-02-04T05:07:37;10025000.0;;;5.83;64.25684
53089;BME280;38968;47.696;17.540;2023-02-04T05:12:38;10025720.0;;;6.09;61.87012
53089;BME280;38968;47.696;17.540;2023-02-04T05:17:37;10027880.0;;;6.11;59.12891
53089;BME280;38968;47.696;17.540;2023-02-04T05:22:37;10028830.0;;;6.16;57.97949
53089;BME280;38968;47.696;17.540;2023-02-04T05:27:37;10028240.0;;;6.37;56.54297
53089;BME280;38968;47.696;17.540;2023-02-04T05:32:37;10029640.0;;;6.58;56.58105
53089;BME280;38968;47.696;17.540;2023-02-04T05:37:37;10032220.0;;;6.3;56.9873
53089;BME280;38968;47.696;17.540;2023-02-04T05:42:37;10033610.0;;;6.35;55.71094
53089;BME280;38968;47.696;17.540;2023-02-04T05:47:37;10034120.0;;;6.2;55.02148
53089;BME280;38968;47.696;17.540;2023-02-04T05:52:37;10032900.0;;;6.16;54.62988
53089;BME280;38968;47.696;17.540;2023-02-04T05:57:38;10034660.0;;;6.48;53.37402
53089;BME280;38968;47.696;17.540;2023-02-04T06:02:37;10036530.0;;;6.1;53.78125
53089;BME280;38968;47.696;17.540;2023-02-04T06:07:37;10037320.0;;;6.18;53.05273
53089;BME280;38968;47.696;17.540;2023-02-04T06:12:37;10039080.0;;;6.61;52.79883
53089;BME280;38968;47.696;17.540;2023-02-04T06:17:37;10039990.0;;;6.13;54.27441
53089;BME280;38968;47.696;17.540;2023-02-04T06:22:37;10039590.0;;;6.51;53.46777
53089;BME280;38968;47.696;17.540;2023-02-04T06:27:37;10041050.0;;;6.33;53.36621
53089;BME280;38968;47.696;17.540;2023-02-04T06:32:38;10042770.0;;;6.16;54.64063
53089;BME280;38968;47.696;17.540;2023-02-04T06:37:37;10046700.0;;;5.71;55.93262
53089;BME280;38968;47.696;17.540;2023-02-04T06:42:37;10048420.0;;;5.66;56.47168
53089;BME280;38968;47.696;17.540;2023-02-04T06:47:37;10049450.0;;;5.56;55.17773
53089;BME280;38968;47.696;17.540;2023-02-04T06:52:37;10049260.0;;;5.46;53.88379
53089;BME280;38968;47.696;17.540;2023-02-04T06:57:37;10053510.0;;;5.54;53.85938
53089;BME280;38968;47.696;17.540;2023-02-04T07:02:37;10053930.0;;;5.45;53.4043
53089;BME280;38968;47.696;17.540;2023-02-04T07:07:37;10056340.0;;;4.86;52.30078
53089;BME280;38968;47.696;17.540;2023-02-04T07:22:21;10064770.0;;;4.2;53.88477
53089;BME280;38968;47.696;17.540;2023-02-04T07:27:22;10067760.0;;;4.08;54.29785
53089;BME280;38968;47.696;17.540;2023-02-04T07:32:21;10067860.0;;;4.1;54.00684
53089;BME280;38968;47.696;17.540;2023-02-04T07:37:21;10069150.0;;;4.55;52.6709
53089;BME280;38968;47.696;17.540;2023-02-04T07:42:22;10065920.0;;;4.32;52.23438
53089;BME280;38968;47.696;17.540;2023-02-04T07:47:21;10070670.0;;;4.34;52.56641
53089;BME280;38968;47.696;17.540;2023-02-04T07:52:25;10069680.0;;;4.16;52.89355
53089;BME280;38968;47.696;17.540;2023-02-04T07:57:21;10073070.0;;;3.87;53.52637
53089;BME280;38968;47.696;17.540;2023-02-04T08:02:22;10075140.0;;;3.9;53.55273
53089;BME280;38968;47.696;17.540;2023-02-04T08:07:21;10078040.0;;;3.77;53.18652
53089;BME280;38968;47.696;17.540;2023-02-04T08:16:28;10081660.0;;;3.77;53.83008
53089;BME280;38968;47.696;17.540;2023-02-04T08:21:27;10084880.0;;;3.87;54.13672
53089;BME280;38968;47.696;17.540;2023-02-04T08:26:27;10085640.0;;;3.81;53.67578
53089;BME280;38968;47.696;17.540;2023-02-04T08:31:27;10086100.0;;;3.58;53.06055
53089;BME280;38968;47.696;17.540;2023-02-04T08:36:27;10092380.0;;;3.88;53.06348
53089;BME280;38968;47.696;17.540;2023-02-04T08:41:27;10091550.0;;;4.36;52.94238
53089;BME280;38968;47.696;17.540;2023-02-04T08:46:27;10092640.0;;;4.21;52.53906
53089;BME280;38968;47.696;17.540;2023-02-04T08:51:27;10092600.0;;;5.19;50.91211
53089;BME280;38968;47.696;17.540;2023-02-04T08:56:27;10094000.0;;;4.88;50.85352
53089;BME280;38968;47.696;17.540;2023-02-04T09:01:27;10093460.0;;;4.77;51.14648
53089;BME280;38968;47.696;17.540;2023-02-04T09:06:27;10094030.0;;;5.02;49.46289
53089;BME280;38968;47.696;17.540;2023-02-04T09:11:27;10098180.0;;;5;50.5498
53089;BME280;38968;47.696;17.540;2023-02-04T09:16:27;10100050.0;;;4.52;50.74219
53089;BME280;38968;47.696;17.540;2023-02-04T09:21:27;10104930.0;;;4.73;50.03027
53089;BME280;38968;47.696;17.540;2023-02-04T09:26:27;10108310.0;;;4.42;50.90039
53089;BME280;38968;47.696;17.540;2023-02-04T09:31:27;10108810.0;;;4.37;49.3877
53089;BME280;38968;47.696;17.540;2023-02-04T09:36:27;10111540.0;;;4.23;51.07031
53089;BME280;38968;47.696;17.540;2023-02-04T09:41:27;10113660.0;;;4.44;49.38477
53089;BME280;38968;47.696;17.540;2023-02-04T09:46:27;10115450.0;;;5.72;45.92773
53089;BME280;38968;47.696;17.540;2023-02-04T09:51:28;10116560.0;;;5.29;47.37012
53089;BME280;38968;47.696;17.540;2023-02-04T09:56:27;10115240.0;;;4.52;47.96484
53089;BME280;38968;47.696;17.540;2023-02-04T10:01:27;10119960.0;;;4.72;49.03125
53089;BME280;38968;47.696;17.540;2023-02-04T10:06:27;10119670.0;;;4.29;49.53809
53089;BME280;38968;47.696;17.540;2023-02-04T10:11:28;10120520.0;;;4.25;49.52246
53089;BME280;38968;47.696;17.540;2023-02-04T10:16:29;10120450.0;;;4.33;49.9707
53089;BME280;38968;47.696;17.540;2023-02-04T10:21:33;10120650.0;;;4.43;50.14258
53089;BME280;38968;47.696;17.540;2023-02-04T10:26:29;10123420.0;;;5.07;49.03711
53089;BME280;38968;47.696;17.540;2023-02-04T10:31:40;10123190.0;;;4.86;49.00195
53089;BME280;38968;47.696;17.540;2023-02-04T10:36:27;10124950.0;;;4.36;49.3418
53089;BME280;38968;47.696;17.540;2023-02-04T10:41:27;10123380.0;;;5.61;47.91699
53089;BME280;38968;47.696;17.540;2023-02-04T10:46:28;10126470.0;;;5.5;47.47266
53089;BME280;38968;47.696;17.540;2023-02-04T10:51:27;10127610.0;;;5.24;47.25098
53089;BME280;38968;47.696;17.540;2023-02-04T10:56:27;10129770.0;;;4.91;47.94141
53089;BME280;38968;47.696;17.540;2023-02-04T11:01:28;10130670.0;;;5.7;46.91504
53089;BME280;38968;47.696;17.540;2023-02-04T11:06:27;10130800.0;;;5.54;46.06738
53089;BME280;38968;47.696;17.540;2023-02-04T11:11:28;10132340.0;;;4.55;45.88184
53089;BME280;38968;47.696;17.540;2023-02-04T11:16:28;10135580.0;;;5.32;46.66895
53089;BME280;38968;47.696;17.540;2023-02-04T11:21:39;10133590.0;;;5.95;44.12891
53089;BME280;38968;47.696;17.540;2023-02-04T11:26:35;10137210.0;;;5.25;45.47949
53089;BME280;38968;47.696;17.540;2023-02-04T11:31:40;10135550.0;;;5.52;43.53906
53089;BME280;38968;47.696;17.540;2023-02-04T11:36:29;10138470.0;;;5.78;44.51074
53089;BME280;38968;47.696;17.540;2023-02-04T11:41:28;10139690.0;;;5.5;45.09668
53089;BME280;38968;47.696;17.540;2023-02-04T11:46:28;10139370.0;;;6.6;43.2373
53089;BME280;38968;47.696;17.540;2023-02-04T11:51:31;10140190.0;;;5.4;44.61914
53089;BME280;38968;47.696;17.540;2023-02-04T11:56:28;10140920.0;;;5.56;44.3623
53089;BME280;38968;47.696;17.540;2023-02-04T12:01:32;10140900.0;;;5.47;44.45605
53089;BME280;38968;47.696;17.540;2023-02-04T12:06:32;10144560.0;;;4.69;45.97656
53089;BME280;38968;47.696;17.540;2023-02-04T12:11:28;10144580.0;;;7.08;42.06348
53089;BME280;38968;47.696;17.540;2023-02-04T12:16:27;10143890.0;;;7.98;38.19824
53089;BME280;38968;47.696;17.540;2023-02-04T12:21:27;10143990.0;;;6.04;41.5293
53089;BME280;38968;47.696;17.540;2023-02-04T12:26:27;10145560.0;;;5.77;41.23047
53089;BME280;38968;47.696;17.540;2023-02-04T12:31:27;10147310.0;;;5.84;42.7168
53089;BME280;38968;47.696;17.540;2023-02-04T12:36:27;10146240.0;;;5.43;42.62012
53089;BME280;38968;47.696;17.540;2023-02-04T12:41:27;10147240.0;;;6.56;39.88965
53089;BME280;38968;47.696;17.540;2023-02-04T12:46:27;10145830.0;;;6.87;38.93555
53089;BME280;38968;47.696;17.540;2023-02-04T12:51:27;10147130.0;;;7.65;38.22656
53089;BME280;38968;47.696;17.540;2023-02-04T12:56:27;10148200.0;;;6.27;37.12305
53089;BME280;38968;47.696;17.540;2023-02-04T13:01:27;10149510.0;;;5.05;40.79688
53089;BME280;38968;47.696;17.540;2023-02-04T13:06:27;10151890.0;;;5.23;41.23535
53089;BME280;38968;47.696;17.540;2023-02-04T13:11:27;10152810.0;;;4.09;42.21387
53089;BME280;38968;47.696;17.540;2023-02-04T13:16:27;10152980.0;;;4.32;41.63574
53089;BME280;38968;47.696;17.540;2023-02-04T13:21:27;10153680.0;;;3.84;43.5957
53089;BME280;38968;47.696;17.540;2023-02-04T13:26:27;10154550.0;;;4.37;42.27637
53089;BME280;38968;47.696;17.540;2023-02-04T13:31:27;10154600.0;;;4.02;43.01367
53089;BME280;38968;47.696;17.540;2023-02-04T13:36:27;10156820.0;;;3.94;43.11914
53089;BME280;38968;47.696;17.540;2023-02-04T13:41:27;10157110.0;;;3.8;44.11328
53089;BME280;38968;47.696;17.540;2023-02-04T13:46:27;10158000.0;;;3.62;44.9668
53089;BME280;38968;47.696;17.540;2023-02-04T13:51:27;10159570.0;;;3.92;44.95313
53089;BME280;38968;47.696;17.540;2023-02-04T13:56:27;10159770.0;;;3.98;45.42383
53089;BME280;38968;47.696;17.540;2023-02-04T14:01:27;10161480.0;;;3.94;45.41992
53089;BME280;38968;47.696;17.540;2023-02-04T14:06:27;10157440.0;;;4.25;42.82129
53089;BME280;38968;47.696;17.540;2023-02-04T14:11:27;10160190.0;;;4.44;41.13574
53089;BME280;38968;47.696;17.540;2023-02-04T14:16:27;10161630.0;;;3.88;43.27148
53089;BME280;38968;47.696;17.540;2023-02-04T14:21:27;10162990.0;;;3.61;44.23047
53089;BME280;38968;47.696;17.540;2023-02-04T14:26:27;10163380.0;;;3.74;43.7334
53089;BME280;38968;47.696;17.540;2023-02-04T14:31:27;10164950.0;;;3.55;45.0498
53089;BME280;38968;47.696;17.540;2023-02-04T14:36:27;10165050.0;;;3.81;44.01172
53089;BME280;38968;47.696;17.540;2023-02-04T14:41:27;10165220.0;;;3.37;44.15918
53089;BME280;38968;47.696;17.540;2023-02-04T14:46:28;10166680.0;;;3.36;44.29492
53089;BME280;38968;47.696;17.540;2023-02-04T14:51:27;10167180.0;;;3.75;44.73145
53089;BME280;38968;47.696;17.540;2023-02-04T14:56:27;10168070.0;;;4.06;44.40039
53089;BME280;38968;47.696;17.540;2023-02-04T15:01:28;10167970.0;;;3.78;44.72363
53089;BME280;38968;47.696;17.540;2023-02-04T15:06:26;10168510.0;;;3.84;44.71875
53089;BME280;38968;47.696;17.540;2023-02-04T15:11:27;10167680.0;;;3.93;45.06738
53089;BME280;38968;47.696;17.540;2023-02-04T15:16:27;10169160.0;;;3.52;44.73047
53089;BME280;38968;47.696;17.540;2023-02-04T15:21:27;10169200.0;;;3.4;44.52539
53089;BME280;38968;47.696;17.540;2023-02-04T15:26:27;10170380.0;;;3.13;44.62109
53089;BME280;38968;47.696;17.540;2023-02-04T15:31:27;10170690.0;;;3.04;44.4873
53089;BME280;38968;47.696;17.540;2023-02-04T15:36:27;10170770.0;;;3.45;43.98633
53089;BME280;38968;47.696;17.540;2023-02-04T15:41:27;10171430.0;;;3.38;44.41016
53089;BME280;38968;47.696;17.540;2023-02-04T15:46:27;10171800.0;;;3.23;44.43945
53089;BME280;38968;47.696;17.540;2023-02-04T15:51:28;10173510.0;;;3.41;44.57227
53089;BME280;38968;47.696;17.540;2023-02-04T15:56:27;10174420.0;;;3.75;44.75391
53089;BME280;38968;47.696;17.540;2023-02-04T16:01:27;10175430.0;;;2.85;48.07324
53089;BME280;38968;47.696;17.540;2023-02-04T16:06:27;10174330.0;;;2.72;48.76953
53089;BME280;38968;47.696;17.540;2023-02-04T16:11:27;10175470.0;;;2.74;48.99707
53089;BME280;38968;47.696;17.540;2023-02-04T16:16:27;10175700.0;;;3.09;48.54004
53089;BME280;38968;47.696;17.540;2023-02-04T16:21:27;10175970.0;;;3.11;48.46289
53089;BME280;38968;47.696;17.540;2023-02-04T16:26:27;10176380.0;;;2.86;48.88672
53089;BME280;38968;47.696;17.540;2023-02-04T16:31:27;10177250.0;;;2.88;48.88867
53089;BME280;38968;47.696;17.540;2023-02-04T16:36:27;10177020.0;;;3.15;48.28711
53089;BME280;38968;47.696;17.540;2023-02-04T16:41:27;10177730.0;;;2.81;47.55957
53089;BME280;38968;47.696;17.540;2023-02-04T16:46:27;10179890.0;;;3.02;47.63965
53089;BME280;38968;47.696;17.540;2023-02-04T16:51:27;10179890.0;;;2.81;48.55371
53089;BME280;38968;47.696;17.540;2023-02-04T16:56:27;10181760.0;;;2.56;50.375
53089;BME280;38968;47.696;17.540;2023-02-04T17:01:27;10182170.0;;;2.35;51.53418
53089;BME280;38968;47.696;17.540;2023-02-04T17:06:30;10182590.0;;;2.33;52.35449
53089;BME280;38968;47.696;17.540;2023-02-04T17:11:27;10184830.0;;;2.14;53.64844
53089;BME280;38968;47.696;17.540;2023-02-04T17:16:28;10185670.0;;;2.28;54.15039
53089;BME280;38968;47.696;17.540;2023-02-04T17:21:28;10186220.0;;;2.73;53.79004
53089;BME280;38968;47.696;17.540;2023-02-04T17:26:27;10187330.0;;;2.33;55.15918
53089;BME280;38968;47.696;17.540;2023-02-04T17:31:27;10188100.0;;;2.71;54.43945
53089;BME280;38968;47.696;17.540;2023-02-04T17:36:27;10188710.0;;;2.35;55.38672
53089;BME280;38968;47.696;17.540;2023-02-04T17:41:27;10190450.0;;;2.02;55.9502
53089;BME280;38968;47.696;17.540;2023-02-04T17:46:27;10191400.0;;;2.03;55.79395
53089;BME280;38968;47.696;17.540;2023-02-04T17:51:28;10192510.0;;;2.02;56.26563
53089;BME280;38968;47.696;17.540;2023-02-04T17:56:27;10192540.0;;;1.92;56.51074
53089;BME280;38968;47.696;17.540;2023-02-04T18:01:27;10193710.0;;;2.55;55.31055
53089;BME280;38968;47.696;17.540;2023-02-04T18:06:27;10193960.0;;;2.36;55.62305
53089;BME280;38968;47.696;17.540;2023-02-04T18:11:35;10193270.0;;;2.35;56.33105
53089;BME280;38968;47.696;17.540;2023-02-04T18:16:29;10192570.0;;;1.98;56.87891
53089;BME280;38968;47.696;17.540;2023-02-04T18:21:31;10192140.0;;;2.49;55.3584
53089;BME280;38968;47.696;17.540;2023-02-04T18:26:28;10191710.0;;;2.16;55.96777
53089;BME280;38968;47.696;17.540;2023-02-04T18:31:35;10191430.0;;;2.09;56.21875
53089;BME280;38968;47.696;17.540;2023-02-04T18:36:28;10192160.0;;;1.84;56.02734
53089;BME280;38968;47.696;17.540;2023-02-04T18:41:31;10191250.0;;;2.08;54.69824
53089;BME280;38968;47.696;17.540;2023-02-04T18:46:39;10191590.0;;;2.07;55.11328
53089;BME280;38968;47.696;17.540;2023-02-04T18:51:28;10192500.0;;;2.19;54.72266
53089;BME280;38968;47.696;17.540;2023-02-04T18:56:31;10192390.0;;;1.96;55.02051
53089;BME280;38968;47.696;17.540;2023-02-04T19:01:27;10193320.0;;;1.94;55.44434
53089;BME280;38968;47.696;17.540;2023-02-04T19:06:37;10192910.0;;;1.96;54.93066
53089;BME280;38968;47.696;17.540;2023-02-04T19:11:32;10192210.0;;;1.95;54.33203
53089;BME280;38968;47.696;17.540;2023-02-04T19:16:32;10195030.0;;;1.92;54.59863
53089;BME280;38968;47.696;17.540;2023-02-04T19:21:28;10195450.0;;;2.06;54.12109
53089;BME280;38968;47.696;17.540;2023-02-04T19:31:32;10196920.0;;;2.07;53.46973
53089;BME280;38968;47.696;17.540;2023-02-04T19:36:30;10196780.0;;;2.31;52.63379
53089;BME280;38968;47.696;17.540;2023-02-04T19:41:42;10194970.0;;;2.13;53.12988
53089;BME280;38968;47.696;17.540;2023-02-04T19:46:28;10195420.0;;;1.66;53.66602
53089;BME280;38968;47.696;17.540;2023-02-04T19:51:28;10196650.0;;;1.87;53.28906
53089;BME280;38968;47.696;17.540;2023-02-04T19:56:31;10196770.0;;;1.62;53.35742
53089;BME280;38968;47.696;17.540;2023-02-04T20:01:28;10197130.0;;;1.81;53.0791
53089;BME280;38968;47.696;17.540;2023-02-04T20:06:37;10198330.0;;;1.81;53.5166
53089;BME280;38968;47.696;17.540;2023-02-04T20:21:28;10198620.0;;;2.21;52.90234
53089;BME280;38968;47.696;17.540;2023-02-04T20:26:27;10199550.0;;;2.01;53.38477
53089;BME280;38968;47.696;17.540;2023-02-04T20:31:28;10198770.0;;;1.82;53.91113
53089;BME280;38968;47.696;17.540;2023-02-04T20:36:30;10200000.0;;;2.05;53.61426
53089;BME280;38968;47.696;17.540;2023-02-04T20:41:28;10199910.0;;;2.37;52.33691
53089;BME280;38968;47.696;17.540;2023-02-04T20:46:28;10200540.0;;;2.1;53.23633
53089;BME280;38968;47.696;17.540;2023-02-04T20:51:27;10201220.0;;;1.92;53.94629
53089;BME280;38968;47.696;17.540;2023-02-04T20:56:34;10200700.0;;;2.42;52.39844
53089;BME280;38968;47.696;17.540;2023-02-04T21:01:35;10200140.0;;;2.49;51.78711
53089;BME280;38968;47.696;17.540;2023-02-04T21:06:32;10199840.0;;;2.41;51.80176
53089;BME280;38968;47.696;17.540;2023-02-04T21:11:27;10199420.0;;;2.79;51.35059
53089;BME280;38968;47.696;17.540;2023-02-04T21:16:27;10198920.0;;;2.82;50.68848
53089;BME280;38968;47.696;17.540;2023-02-04T21:21:27;10200420.0;;;2.03;52.82422
53089;BME280;38968;47.696;17.540;2023-02-04T21:26:27;10199840.0;;;1.73;53.5293
53089;BME280;38968;47.696;17.540;2023-02-04T21:31:27;10199460.0;;;2.01;53.24902
53089;BME280;38968;47.696;17.540;2023-02-04T21:36:27;10198300.0;;;1.91;53.22461
53089;BME280;38968;47.696;17.540;2023-02-04T21:41:27;10197410.0;;;1.84;53.22852
53089;BME280;38968;47.696;17.540;2023-02-04T21:46:27;10197580.0;;;1.85;53.55566
53089;BME280;38968;47.696;17.540;2023-02-04T21:51:27;10197280.0;;;1.94;53.29688
53089;BME280;38968;47.696;17.540;2023-02-04T21:56:27;10198290.0;;;2.07;53.45996
53089;BME280;38968;47.696;17.540;2023-02-04T22:01:27;10198690.0;;;1.84;53.71191
53089;BME280;38968;47.696;17.540;2023-02-04T22:06:27;10200950.0;;;2.05;53.55762
53089;BME280;38968;47.696;17.540;2023-02-04T22:11:27;10201390.0;;;1.91;53.92285
53089;BME280;38968;47.696;17.540;2023-02-04T22:16:27;10203120.0;;;2.1;53.48438
53089;BME280;38968;47.696;17.540;2023-02-04T22:21:27;10202370.0;;;1.97;53.53516
53089;BME280;38968;47.696;17.540;2023-02-04T22:26:27;10203380.0;;;1.92;54.00293
53089;BME280;38968;47.696;17.540;2023-02-04T22:31:27;10203850.0;;;1.84;54.46582
53089;BME280;38968;47.696;17.540;2023-02-04T22:36:27;10203950.0;;;2.21;53.60059
53089;BME280;38968;47.696;17.540;2023-02-04T22:41:27;10204870.0;;;2.84;51.58105
53089;BME280;38968;47.696;17.540;2023-02-04T22:46:27;10204250.0;;;2.8;52.06152
53089;BME280;38968;47.696;17.540;2023-02-04T22:51:27;10204570.0;;;2.24;52.32031
53089;BME280;38968;47.696;17.540;2023-02-04T22:56:27;10204560.0;;;2.21;52.64355
53089;BME280;38968;47.696;17.540;2023-02-04T23:01:27;10204220.0;;;2.4;52.30566
53089;BME280;38968;47.696;17.540;2023-02-04T23:06:26;10205380.0;;;2.66;51.83008
53089;BME280;38968;47.696;17.540;2023-02-04T23:11:27;10205530.0;;;2.27;52.61719
53089;BME280;38968;47.696;17.540;2023-02-04T23:16:27;10205740.0;;;2.52;52.34277
53089;BME280;38968;47.696;17.540;2023-02-04T23:21:27;10206540.0;;;2.56;52.4502
53089;BME280;38968;47.696;17.540;2023-02-04T23:26:27;10203870.0;;;2.56;52.22363
53089;BME280;38968;47.696;17.540;2023-02-04T23:31:27;10203240.0;;;2.49;52.06934
53089;BME280;38968;47.696;17.540;2023-02-04T23:36:27;10204340.0;;;2.12;53.09375
53089;BME280;38968;47.696;17.540;2023-02-04T23:41:27;10204230.0;;;2.07;53.39258
53089;BME280;38968;47.696;17.540;2023-02-04T23:46:27;10203740.0;;;2.3;53.05957
53089;BME280;38968;47.696;17.540;2023-02-04T23:51:27;10203460.0;;;1.58;55.16211
53089;BME280;38968;47.696;17.540;2023-02-04T23:56:27;10202090.0;;;1.59;55.16504
